createdAt,value
2018-09-09T00:00:51.909Z,92.50
2018-09-09T00:03:20.369Z,92.50
2018-09-09T00:05:49.173Z,92.40
2018-09-09T00:08:17.655Z,92.40
2018-09-09T00:10:46.156Z,92.50
2018-09-09T00:13:14.685Z,92.40
2018-09-09T00:15:43.214Z,92.30
2018-09-09T00:18:11.677Z,92.40
2018-09-09T00:20:40.274Z,92.40
2018-09-09T00:23:09.251Z,92.50
2018-09-09T00:25:37.735Z,92.50
2018-09-09T00:28:10.851Z,92.50
2018-09-09T00:30:39.350Z,92.50
2018-09-09T00:33:07.784Z,92.50
2018-09-09T00:35:36.250Z,92.50
2018-09-09T00:38:04.809Z,92.40
2018-09-09T00:40:33.331Z,92.50
2018-09-09T00:43:01.794Z,92.50
2018-09-09T00:45:30.298Z,92.50
2018-09-09T00:47:58.793Z,92.30
2018-09-09T00:50:32.761Z,92.50
2018-09-09T00:53:06.616Z,92.60
2018-09-09T00:55:35.345Z,92.60
2018-09-09T00:58:03.812Z,92.20
2018-09-09T01:00:38.073Z,92.50
2018-09-09T01:03:06.569Z,92.40
2018-09-09T01:05:35.107Z,92.40
2018-09-09T01:08:03.554Z,92.60
2018-09-09T01:10:32.023Z,92.60
2018-09-09T01:13:07.265Z,92.40
2018-09-09T01:15:35.725Z,92.20
2018-09-09T01:18:04.206Z,92.10
2018-09-09T01:20:32.656Z,91.90
2018-09-09T01:23:01.113Z,91.90
2018-09-09T01:25:29.635Z,91.80
2018-09-09T01:27:58.126Z,91.80
2018-09-09T01:30:26.653Z,91.80
2018-09-09T01:32:55.123Z,91.90
2018-09-09T01:35:23.593Z,92.00
2018-09-09T01:37:52.149Z,92.00
2018-09-09T01:40:20.625Z,92.10
2018-09-09T01:42:49.098Z,92.20
2018-09-09T01:45:17.605Z,92.00
2018-09-09T01:47:46.065Z,92.10
2018-09-09T01:50:14.557Z,92.20
2018-09-09T01:52:43.052Z,92.20
2018-09-09T01:55:11.535Z,92.20
2018-09-09T01:57:40.113Z,92.00
2018-09-09T02:00:08.654Z,91.80
2018-09-09T02:02:37.094Z,91.70
2018-09-09T02:05:05.613Z,91.60
2018-09-09T02:07:34.082Z,91.40
2018-09-09T02:10:02.554Z,91.30
2018-09-09T02:12:30.998Z,91.20
2018-09-09T02:14:59.433Z,91.30
2018-09-09T02:17:27.907Z,91.50
2018-09-09T02:19:56.361Z,91.60
2018-09-09T02:22:24.843Z,91.70
2018-09-09T02:24:53.293Z,91.70
2018-09-09T02:27:21.750Z,91.70
2018-09-09T02:29:50.225Z,91.40
2018-09-09T02:32:18.657Z,91.40
2018-09-09T02:34:47.143Z,91.40
2018-09-09T02:37:15.583Z,91.40
2018-09-09T02:39:44.065Z,91.30
2018-09-09T02:42:12.590Z,91.30
2018-09-09T02:44:41.034Z,91.40
2018-09-09T02:47:09.532Z,91.40
2018-09-09T02:49:37.998Z,91.50
2018-09-09T02:52:06.530Z,91.60
2018-09-09T02:54:35.573Z,91.80
2018-09-09T02:57:06.928Z,91.90
2018-09-09T02:59:35.429Z,92.10
2018-09-09T03:02:03.919Z,92.30
2018-09-09T03:04:32.541Z,92.30
2018-09-09T03:07:01.011Z,92.30
2018-09-09T03:09:29.514Z,92.20
2018-09-09T03:11:57.986Z,92.20
2018-09-09T03:14:27.038Z,92.10
2018-09-09T03:16:55.502Z,92.10
2018-09-09T03:19:23.950Z,91.80
2018-09-09T03:21:52.410Z,91.70
2018-09-09T03:24:20.874Z,91.80
2018-09-09T03:26:49.309Z,91.90
2018-09-09T03:29:17.748Z,91.70
2018-09-09T03:31:46.170Z,91.70
2018-09-09T03:34:14.630Z,91.60
2018-09-09T03:36:43.127Z,91.60
2018-09-09T03:39:11.593Z,91.70
2018-09-09T03:41:40.087Z,91.70
2018-09-09T03:44:08.529Z,91.60
2018-09-09T03:46:37.012Z,91.70
2018-09-09T03:49:05.485Z,91.50
2018-09-09T03:51:34.174Z,91.40
2018-09-09T03:54:02.666Z,91.40
2018-09-09T03:56:31.110Z,91.20
2018-09-09T03:58:59.966Z,91.00
2018-09-09T04:01:28.445Z,90.80
2018-09-09T04:03:56.984Z,90.70
2018-09-09T04:06:25.857Z,90.50
2018-09-09T04:08:54.346Z,90.50
2018-09-09T04:11:22.806Z,90.60
2018-09-09T04:13:51.396Z,90.70
2018-09-09T04:16:19.840Z,90.80
2018-09-09T04:18:48.321Z,90.70
2018-09-09T04:21:16.789Z,90.90
2018-09-09T04:23:45.254Z,90.90
2018-09-09T04:26:13.742Z,91.10
2018-09-09T04:28:42.178Z,91.30
2018-09-09T04:31:10.697Z,91.20
2018-09-09T04:33:39.150Z,91.30
2018-09-09T04:36:07.570Z,91.30
2018-09-09T04:38:36.164Z,91.30
2018-09-09T04:41:04.614Z,91.20
2018-09-09T04:43:33.121Z,91.20
2018-09-09T04:46:01.581Z,91.20
2018-09-09T04:48:30.726Z,91.20
2018-09-09T04:50:59.590Z,90.90
2018-09-09T04:53:28.028Z,91.10
2018-09-09T04:55:56.477Z,91.20
2018-09-09T04:58:24.934Z,91.30
2018-09-09T05:00:53.422Z,91.30
2018-09-09T05:03:21.881Z,91.20
2018-09-09T05:05:50.331Z,91.10
2018-09-09T05:08:18.857Z,91.10
2018-09-09T05:10:47.301Z,91.00
2018-09-09T05:13:15.789Z,90.90
2018-09-09T05:15:44.629Z,90.80
2018-09-09T05:18:13.081Z,90.70
2018-09-09T05:20:41.548Z,90.60
2018-09-09T05:23:10.012Z,90.60
2018-09-09T05:25:38.474Z,90.30
2018-09-09T05:28:07.003Z,90.20
2018-09-09T05:30:35.434Z,90.20
2018-09-09T05:33:03.937Z,90.20
2018-09-09T05:35:32.381Z,90.20
2018-09-09T05:38:00.822Z,90.20
2018-09-09T05:40:29.350Z,90.00
2018-09-09T05:42:57.797Z,90.00
2018-09-09T05:45:26.258Z,90.20
2018-09-09T05:47:54.710Z,90.00
2018-09-09T05:50:23.176Z,89.80
2018-09-09T05:52:51.628Z,89.70
2018-09-09T05:55:20.251Z,89.20
2018-09-09T05:57:48.759Z,89.10
2018-09-09T06:00:17.218Z,89.60
2018-09-09T06:02:45.674Z,90.10
2018-09-09T06:05:14.154Z,89.00
2018-09-09T06:07:42.670Z,88.90
2018-09-09T06:10:11.183Z,89.00
2018-09-09T06:12:39.622Z,88.70
2018-09-09T06:15:08.090Z,87.90
2018-09-09T06:17:36.546Z,86.80
2018-09-09T06:20:05.066Z,86.40
2018-09-09T06:22:33.557Z,86.20
2018-09-09T06:25:02.610Z,85.30
2018-09-09T06:27:31.066Z,85.40
2018-09-09T06:29:59.517Z,84.40
2018-09-09T06:32:27.986Z,84.40
2018-09-09T06:34:56.449Z,84.10
2018-09-09T06:37:24.923Z,83.90
2018-09-09T06:39:53.415Z,84.40
2018-09-09T06:42:21.852Z,84.40
2018-09-09T06:44:50.288Z,84.00
2018-09-09T06:47:18.781Z,84.00
2018-09-09T06:49:47.230Z,84.20
2018-09-09T06:52:15.709Z,84.00
2018-09-09T06:54:44.194Z,83.90
2018-09-09T06:57:13.310Z,84.50
2018-09-09T06:59:41.773Z,83.80
2018-09-09T07:02:10.208Z,82.90
2018-09-09T07:04:38.645Z,82.40
2018-09-09T07:07:07.173Z,81.90
2018-09-09T07:09:35.600Z,81.20
2018-09-09T07:12:04.130Z,80.30
2018-09-09T07:14:32.602Z,79.10
2018-09-09T07:17:01.057Z,76.60
2018-09-09T07:19:29.596Z,73.10
2018-09-09T07:21:58.030Z,72.10
2018-09-09T07:24:26.607Z,70.70
2018-09-09T07:26:55.064Z,68.90
2018-09-09T07:29:23.514Z,66.70
2018-09-09T07:31:52.218Z,64.20
2018-09-09T07:34:20.723Z,62.20
2018-09-09T07:36:49.133Z,60.90
2018-09-09T07:39:17.661Z,63.50
2018-09-09T07:41:46.899Z,65.80
2018-09-09T07:44:15.409Z,65.90
2018-09-09T07:46:43.863Z,65.10
2018-09-09T07:49:12.341Z,66.90
2018-09-09T07:51:40.877Z,66.60
2018-09-09T07:54:09.430Z,64.90
2018-09-09T07:56:37.909Z,66.00
2018-09-09T07:59:06.350Z,66.30
2018-09-09T08:01:34.861Z,66.70
2018-09-09T08:04:03.315Z,67.90
2018-09-09T08:06:31.815Z,66.70
2018-09-09T08:09:00.287Z,66.50
2018-09-09T08:11:34.210Z,67.00
2018-09-09T08:14:02.678Z,66.30
2018-09-09T08:16:32.134Z,66.20
2018-09-09T08:19:00.665Z,65.80
2018-09-09T08:21:29.102Z,64.80
2018-09-09T08:23:57.884Z,64.70
2018-09-09T08:26:26.447Z,63.70
2018-09-09T08:28:55.037Z,62.80
2018-09-09T08:31:24.541Z,61.70
2018-09-09T08:33:53.334Z,62.70
2018-09-09T08:36:21.877Z,62.10
2018-09-09T08:38:50.434Z,61.90
2018-09-09T08:41:18.939Z,62.20
2018-09-09T08:43:47.531Z,61.90
2018-09-09T08:46:16.645Z,61.60
2018-09-09T08:48:45.231Z,63.10
2018-09-09T08:51:13.668Z,63.10
2018-09-09T08:53:42.246Z,62.10
2018-09-09T08:56:10.689Z,62.70
2018-09-09T08:58:39.165Z,61.70
2018-09-09T09:01:07.631Z,62.40
2018-09-09T09:03:36.114Z,62.10
2018-09-09T09:06:04.748Z,61.30
2018-09-09T09:08:33.173Z,60.80
2018-09-09T09:11:02.296Z,60.30
2018-09-09T09:13:30.779Z,59.60
2018-09-09T09:15:59.279Z,60.30
2018-09-09T09:18:27.755Z,59.30
2018-09-09T09:20:56.474Z,57.20
2018-09-09T09:23:25.031Z,56.20
2018-09-09T09:25:54.456Z,54.70
2018-09-09T09:28:23.613Z,55.90
2018-09-09T09:30:52.887Z,55.40
2018-09-09T09:33:21.351Z,56.10
2018-09-09T09:35:51.993Z,58.70
2018-09-09T09:38:21.454Z,58.70
2018-09-09T09:40:50.317Z,57.90
2018-09-09T09:43:18.823Z,58.10
2018-09-09T09:45:47.328Z,58.70
2018-09-09T09:48:16.822Z,58.30
2018-09-09T09:50:45.296Z,57.80
2018-09-09T09:53:13.802Z,57.50
2018-09-09T09:55:42.234Z,56.00
2018-09-09T09:58:10.722Z,56.30
2018-09-09T10:00:45.182Z,55.40
2018-09-09T10:03:13.647Z,55.60
2018-09-09T10:05:42.110Z,55.40
2018-09-09T10:08:10.605Z,54.70
2018-09-09T10:10:39.041Z,53.80
2018-09-09T10:13:07.506Z,54.30
2018-09-09T10:15:36.019Z,52.90
2018-09-09T10:18:04.524Z,53.10
2018-09-09T10:20:32.966Z,53.50
2018-09-09T10:23:01.427Z,53.10
2018-09-09T10:25:29.901Z,53.30
2018-09-09T10:27:58.346Z,52.40
2018-09-09T10:30:26.814Z,52.20
2018-09-09T10:32:55.568Z,52.30
2018-09-09T10:35:24.463Z,53.40
2018-09-09T10:37:52.959Z,52.10
2018-09-09T10:40:22.346Z,52.40
2018-09-09T10:42:50.913Z,51.20
2018-09-09T10:45:19.370Z,50.20
2018-09-09T10:47:47.854Z,50.70
2018-09-09T10:50:16.330Z,50.50
2018-09-09T10:52:44.875Z,49.40
2018-09-09T10:55:13.556Z,50.60
2018-09-09T10:57:42.012Z,50.70
2018-09-09T11:00:10.540Z,51.40
2018-09-09T11:02:39.693Z,51.20
2018-09-09T11:05:08.212Z,51.00
2018-09-09T11:07:36.675Z,50.20
2018-09-09T11:10:05.248Z,49.70
2018-09-09T11:12:33.755Z,50.20
2018-09-09T11:15:02.794Z,47.60
2018-09-09T11:17:31.811Z,46.10
2018-09-09T11:20:00.318Z,45.70
2018-09-09T11:22:29.608Z,47.30
2018-09-09T11:24:58.053Z,48.00
2018-09-09T11:27:27.484Z,48.60
2018-09-09T11:29:56.004Z,47.60
2018-09-09T11:32:24.446Z,47.60
2018-09-09T11:34:52.881Z,47.80
2018-09-09T11:37:21.425Z,47.80
2018-09-09T11:39:49.925Z,47.40
2018-09-09T11:42:18.381Z,46.40
2018-09-09T11:44:46.850Z,45.80
2018-09-09T11:47:15.323Z,48.00
2018-09-09T11:49:43.893Z,46.70
2018-09-09T11:52:12.387Z,47.00
2018-09-09T11:54:40.866Z,47.50
2018-09-09T11:57:09.409Z,46.30
2018-09-09T11:59:37.906Z,45.90
2018-09-09T12:02:06.510Z,47.20
2018-09-09T12:04:34.963Z,47.20
2018-09-09T12:07:03.443Z,47.90
2018-09-09T12:09:31.898Z,47.20
2018-09-09T12:12:00.338Z,45.90
2018-09-09T12:14:29.176Z,45.70
2018-09-09T12:16:57.687Z,46.50
2018-09-09T12:19:26.155Z,45.50
2018-09-09T12:21:54.646Z,45.60
2018-09-09T12:24:23.160Z,45.00
2018-09-09T12:26:51.613Z,43.10
2018-09-09T12:29:20.109Z,43.80
2018-09-09T12:31:49.164Z,43.80
2018-09-09T12:34:17.640Z,43.60
2018-09-09T12:36:46.171Z,41.50
2018-09-09T12:39:14.647Z,41.60
2018-09-09T12:41:43.095Z,40.60
2018-09-09T12:44:16.961Z,40.30
2018-09-09T12:46:50.763Z,40.30
2018-09-09T12:49:19.235Z,41.30
2018-09-09T12:51:47.689Z,40.00
2018-09-09T12:54:16.154Z,40.80
2018-09-09T12:56:44.600Z,41.70
2018-09-09T12:59:13.091Z,41.50
2018-09-09T13:01:41.574Z,41.30
2018-09-09T13:04:10.072Z,39.00
2018-09-09T13:06:38.534Z,39.40
2018-09-09T13:09:08.258Z,40.10
2018-09-09T13:11:36.725Z,39.50
2018-09-09T13:14:05.485Z,38.30
2018-09-09T13:16:33.968Z,38.10
2018-09-09T13:19:02.558Z,36.80
2018-09-09T13:21:31.038Z,37.10
2018-09-09T13:23:59.535Z,37.10
2018-09-09T13:26:28.035Z,34.80
2018-09-09T13:28:56.476Z,35.40
2018-09-09T13:31:25.005Z,34.00
2018-09-09T13:33:53.504Z,34.40
2018-09-09T13:36:21.973Z,34.80
2018-09-09T13:38:50.487Z,35.60
2018-09-09T13:41:18.969Z,36.30
2018-09-09T13:43:47.421Z,37.30
2018-09-09T13:46:15.898Z,35.70
2018-09-09T13:48:44.372Z,35.90
2018-09-09T13:51:12.937Z,35.70
2018-09-09T13:53:41.415Z,36.10
2018-09-09T13:56:09.927Z,36.70
2018-09-09T13:58:38.434Z,36.90
2018-09-09T14:01:06.903Z,37.00
2018-09-09T14:03:35.377Z,38.00
2018-09-09T14:06:03.873Z,38.00
2018-09-09T14:08:32.362Z,37.40
2018-09-09T14:11:00.843Z,36.30
2018-09-09T14:13:29.290Z,37.50
2018-09-09T14:15:57.757Z,39.00
2018-09-09T14:18:26.219Z,38.80
2018-09-09T14:20:54.657Z,39.60
2018-09-09T14:23:23.104Z,39.30
2018-09-09T14:25:51.574Z,40.70
2018-09-09T14:28:20.121Z,41.20
2018-09-09T14:30:48.669Z,40.80
2018-09-09T14:33:17.190Z,40.60
2018-09-09T14:35:45.622Z,41.30
2018-09-09T14:38:14.057Z,41.50
2018-09-09T14:40:42.502Z,40.60
2018-09-09T14:43:10.963Z,38.80
2018-09-09T14:45:39.763Z,39.00
2018-09-09T14:48:08.277Z,38.50
2018-09-09T14:50:36.730Z,37.50
2018-09-09T14:53:05.368Z,38.50
2018-09-09T14:55:34.336Z,39.90
2018-09-09T14:58:02.813Z,40.00
2018-09-09T15:00:31.359Z,40.10
2018-09-09T15:02:59.865Z,40.10
2018-09-09T15:05:28.314Z,40.20
2018-09-09T15:07:57.586Z,41.00
2018-09-09T15:10:26.087Z,42.30
2018-09-09T15:12:54.554Z,41.40
2018-09-09T15:15:23.680Z,41.60
2018-09-09T15:17:52.142Z,42.00
2018-09-09T15:20:20.703Z,42.50
2018-09-09T15:22:49.202Z,43.90
2018-09-09T15:25:17.653Z,43.30
2018-09-09T15:27:46.121Z,43.40
2018-09-09T15:30:14.579Z,42.00
2018-09-09T15:32:43.027Z,43.10
2018-09-09T15:35:11.526Z,43.70
2018-09-09T15:37:39.980Z,43.70
2018-09-09T15:40:08.591Z,44.40
2018-09-09T15:42:37.060Z,44.10
2018-09-09T15:45:05.629Z,43.80
2018-09-09T15:47:34.192Z,43.60
2018-09-09T15:50:02.925Z,43.80
2018-09-09T15:52:31.417Z,43.80
2018-09-09T15:54:59.902Z,44.20
2018-09-09T15:57:28.508Z,44.00
2018-09-09T15:59:57.041Z,44.80
2018-09-09T16:02:25.534Z,45.10
2018-09-09T16:04:53.961Z,45.20
2018-09-09T16:07:22.499Z,45.00
2018-09-09T16:09:50.891Z,44.90
2018-09-09T16:12:19.461Z,45.60
2018-09-09T16:14:48.037Z,46.10
2018-09-09T16:17:16.485Z,45.90
2018-09-09T16:19:45.658Z,46.20
2018-09-09T16:22:14.107Z,46.20
2018-09-09T16:24:42.673Z,46.00
2018-09-09T16:27:11.229Z,46.50
2018-09-09T16:29:39.715Z,45.60
2018-09-09T16:32:08.205Z,45.80
2018-09-09T16:34:36.870Z,46.00
2018-09-09T16:37:06.077Z,46.50
2018-09-09T16:39:34.590Z,46.60
2018-09-09T16:42:03.794Z,46.90
2018-09-09T16:44:32.278Z,47.70
2018-09-09T16:47:02.017Z,47.70
2018-09-09T16:49:30.533Z,48.10
2018-09-09T16:52:01.053Z,48.00
2018-09-09T16:54:30.359Z,48.40
2018-09-09T16:56:58.809Z,48.30
2018-09-09T16:59:27.430Z,48.40
2018-09-09T17:01:55.870Z,48.60
2018-09-09T17:04:25.022Z,49.60
2018-09-09T17:06:53.801Z,49.40
2018-09-09T17:09:22.302Z,49.70
2018-09-09T17:11:50.748Z,50.20
2018-09-09T17:14:19.237Z,50.10
2018-09-09T17:16:47.749Z,50.70
2018-09-09T17:19:16.226Z,50.60
2018-09-09T17:21:44.674Z,51.30
2018-09-09T17:24:13.158Z,51.70
2018-09-09T17:26:42.414Z,52.50
2018-09-09T17:29:11.250Z,52.70
2018-09-09T17:31:39.702Z,52.70
2018-09-09T17:34:08.369Z,53.20
2018-09-09T17:36:36.878Z,53.80
2018-09-09T17:39:07.733Z,54.20
2018-09-09T17:41:37.025Z,54.70
2018-09-09T17:44:05.607Z,56.00
2018-09-09T17:46:34.097Z,55.00
2018-09-09T17:49:02.974Z,55.40
2018-09-09T17:51:31.422Z,56.20
2018-09-09T17:54:01.583Z,57.30
2018-09-09T17:56:30.626Z,57.80
2018-09-09T17:58:59.154Z,58.80
2018-09-09T18:01:27.768Z,59.50
2018-09-09T18:03:56.233Z,60.10
2018-09-09T18:06:24.881Z,60.60
2018-09-09T18:08:53.397Z,61.40
2018-09-09T18:11:21.966Z,62.50
2018-09-09T18:13:50.478Z,62.50
2018-09-09T18:16:19.473Z,62.80
2018-09-09T18:18:50.948Z,63.80
2018-09-09T18:21:21.112Z,64.20
2018-09-09T18:23:50.478Z,64.40
2018-09-09T18:26:20.361Z,64.00
2018-09-09T18:28:49.866Z,64.00
2018-09-09T18:31:18.414Z,64.00
2018-09-09T18:33:46.885Z,65.20
2018-09-09T18:36:16.246Z,65.80
2018-09-09T18:38:45.534Z,65.50
2018-09-09T18:41:14.246Z,66.10
2018-09-09T18:43:42.998Z,66.40
2018-09-09T18:46:11.644Z,67.30
2018-09-09T18:48:40.684Z,67.30
2018-09-09T18:51:09.184Z,67.80
2018-09-09T18:53:37.630Z,67.90
2018-09-09T18:56:06.221Z,68.50
2018-09-09T18:58:34.670Z,68.60
2018-09-09T19:01:03.142Z,69.20
2018-09-09T19:03:31.595Z,69.60
2018-09-09T19:06:00.085Z,70.00
2018-09-09T19:08:28.590Z,71.30
2018-09-09T19:10:57.021Z,70.90
2018-09-09T19:13:25.561Z,71.20
2018-09-09T19:15:54.385Z,71.30
2018-09-09T19:18:22.859Z,71.50
2018-09-09T19:20:51.458Z,71.60
2018-09-09T19:23:20.058Z,71.90
2018-09-09T19:25:48.505Z,72.50
2018-09-09T19:28:16.965Z,72.60
2018-09-09T19:30:45.506Z,72.60
2018-09-09T19:33:13.957Z,73.20
2018-09-09T19:35:42.394Z,73.40
2018-09-09T19:38:10.861Z,73.60
2018-09-09T19:40:39.339Z,73.90
2018-09-09T19:43:07.794Z,74.20
2018-09-09T19:45:36.268Z,74.80
2018-09-09T19:48:04.781Z,75.50
2018-09-09T19:50:33.298Z,76.40
2018-09-09T19:53:01.737Z,76.90
2018-09-09T19:55:30.193Z,77.60
2018-09-09T19:57:58.686Z,77.90
2018-09-09T20:00:27.174Z,78.50
2018-09-09T20:02:55.603Z,79.00
2018-09-09T20:05:24.064Z,79.60
2018-09-09T20:07:52.568Z,80.20
2018-09-09T20:10:21.038Z,80.90
2018-09-09T20:12:50.140Z,81.20
2018-09-09T20:15:18.677Z,81.60
2018-09-09T20:17:47.144Z,81.70
2018-09-09T20:20:15.631Z,81.40
2018-09-09T20:22:44.082Z,81.60
2018-09-09T20:25:12.545Z,81.30
2018-09-09T20:27:41.002Z,81.20
2018-09-09T20:30:09.453Z,80.80
2018-09-09T20:32:37.935Z,80.50
2018-09-09T20:35:06.550Z,80.30
2018-09-09T20:37:35.022Z,80.70
2018-09-09T20:40:03.485Z,80.90
2018-09-09T20:42:31.951Z,81.20
2018-09-09T20:45:00.410Z,81.50
2018-09-09T20:47:29.176Z,81.50
2018-09-09T20:49:57.617Z,81.70
2018-09-09T20:52:26.160Z,82.00
2018-09-09T20:54:54.598Z,82.10
2018-09-09T20:57:23.283Z,82.50
2018-09-09T20:59:51.781Z,82.30
2018-09-09T21:02:20.222Z,82.10
2018-09-09T21:04:48.702Z,82.70
2018-09-09T21:07:17.162Z,81.80
2018-09-09T21:09:45.652Z,81.40
2018-09-09T21:12:14.388Z,81.20
2018-09-09T21:14:43.357Z,80.90
2018-09-09T21:17:11.865Z,81.20
2018-09-09T21:19:40.884Z,81.40
2018-09-09T21:22:09.328Z,81.20
2018-09-09T21:24:37.813Z,81.20
2018-09-09T21:27:06.478Z,81.40
2018-09-09T21:29:36.216Z,81.20
2018-09-09T21:32:04.729Z,81.00
2018-09-09T21:34:33.269Z,81.00
2018-09-09T21:37:03.440Z,80.90
2018-09-09T21:39:31.938Z,81.30
2018-09-09T21:42:00.875Z,81.20
2018-09-09T21:44:29.319Z,81.60
2018-09-09T21:46:57.822Z,81.40
2018-09-09T21:49:27.911Z,81.20
2018-09-09T21:51:56.346Z,80.90
2018-09-09T21:54:24.776Z,80.90
2018-09-09T21:56:53.241Z,81.10
2018-09-09T21:59:21.756Z,81.20
2018-09-09T22:01:55.518Z,81.20
2018-09-09T22:04:23.951Z,80.20
2018-09-09T22:06:52.393Z,80.60
2018-09-09T22:09:20.825Z,80.30
2018-09-09T22:11:49.948Z,80.70
2018-09-09T22:14:18.437Z,79.90
2018-09-09T22:16:46.930Z,79.50
2018-09-09T22:19:15.413Z,79.50
2018-09-09T22:21:43.994Z,79.30
2018-09-09T22:24:12.445Z,79.50
2018-09-09T22:26:40.881Z,79.20
2018-09-09T22:29:09.335Z,79.00
2018-09-09T22:31:37.765Z,79.00
2018-09-09T22:34:06.492Z,78.90
2018-09-09T22:36:34.986Z,78.80
2018-09-09T22:39:03.770Z,78.50
2018-09-09T22:41:32.322Z,78.70
2018-09-09T22:44:00.824Z,78.50
2018-09-09T22:46:29.266Z,78.20
2018-09-09T22:48:57.786Z,78.40
2018-09-09T22:51:26.769Z,78.20
2018-09-09T22:53:55.267Z,78.40
2018-09-09T22:56:23.798Z,78.50
2018-09-09T22:58:52.274Z,78.50
2018-09-09T23:01:20.812Z,78.10
2018-09-09T23:03:49.258Z,78.20
2018-09-09T23:06:17.714Z,77.80
2018-09-09T23:08:46.173Z,77.40
2018-09-09T23:11:14.649Z,77.20
2018-09-09T23:13:43.236Z,77.30
2018-09-09T23:16:11.697Z,76.90
2018-09-09T23:18:40.769Z,76.50
2018-09-09T23:21:09.257Z,76.20
2018-09-09T23:23:37.726Z,76.20
2018-09-09T23:26:06.275Z,76.20
2018-09-09T23:28:34.726Z,75.70
2018-09-09T23:31:03.182Z,76.00
2018-09-09T23:33:31.685Z,76.30
2018-09-09T23:36:00.150Z,76.50
2018-09-09T23:38:28.590Z,76.90
2018-09-09T23:40:57.043Z,77.20
2018-09-09T23:43:25.510Z,77.10
2018-09-09T23:45:54.825Z,76.90
2018-09-09T23:48:23.530Z,77.10
2018-09-09T23:50:51.974Z,76.60
2018-09-09T23:53:20.458Z,77.00
2018-09-09T23:55:48.910Z,77.50
2018-09-09T23:58:18.165Z,77.60
